Time;durP1;ratioP1;P1;durP2;ratioP2;P2;SDS_P1;SDS_P2;PMS_P1;PMS_P2;Temp;Humidity;BMP_temperature;BMP_pressure;BME280_temperature;BME280_humidity;BME280_pressure;Samples;Min_cycle;Max_cycle;Signal;HPM_P1;HPM_P2
2021/08/08 00:01:34;;;;;;;2.55;2.22;;;;;;;19.07;100.00;99222.83;2880594;82;21021;-65
2021/08/08 00:05:38;;;;;;;3.87;2.00;;;;;;;19.00;99.93;99242.73;2880675;82;21015;-63
2021/08/08 00:09:41;;;;;;;5.90;2.12;;;;;;;18.89;99.72;99240.09;2877067;82;21081;-63
2021/08/08 00:13:49;;;;;;;5.42;2.12;;;;;;;18.78;99.48;99247.77;2877432;82;21041;-63
2021/08/08 00:17:52;;;;;;;5.15;2.35;;;;;;;18.69;99.29;99243.59;2871859;82;21921;-62
2021/08/08 00:21:54;;;;;;;2.60;2.05;;;;;;;18.60;99.16;99234.88;2840563;82;21072;-63
2021/08/08 00:25:56;;;;;;;2.45;2.08;;;;;;;18.56;98.83;99240.37;2897695;81;21003;-63
2021/08/08 00:29:58;;;;;;;2.40;1.75;;;;;;;18.45;99.09;99255.76;2858803;82;20988;-63
2021/08/08 00:34:01;;;;;;;10.20;3.25;;;;;;;18.40;99.63;99269.31;2859030;83;20968;-63
2021/08/08 00:38:05;;;;;;;3.90;2.00;;;;;;;18.41;100.00;99288.47;2915352;81;21046;-63
2021/08/08 00:42:07;;;;;;;3.15;1.98;;;;;;;18.43;100.00;99296.36;2915259;81;21062;-63
2021/08/08 00:46:09;;;;;;;5.40;2.05;;;;;;;18.36;100.00;99276.14;2859571;83;21023;-63
2021/08/08 00:50:12;;;;;;;12.25;2.80;;;;;;;18.33;100.00;99273.86;2915333;81;21050;-63
2021/08/08 00:54:15;;;;;;;5.17;2.17;;;;;;;18.28;100.00;99262.88;2915106;81;21097;-63
2021/08/08 00:58:21;;;;;;;5.85;1.92;;;;;;;18.31;100.00;99246.81;2859713;82;21012;-65
2021/08/08 01:02:25;;;;;;;5.35;1.85;;;;;;;18.38;100.00;99243.12;2859332;83;21562;-64
2021/08/08 01:06:46;;;;;;;3.52;2.33;;;;;;;18.44;100.00;99257.64;2907363;81;21016;-63
2021/08/08 01:10:48;;;;;;;4.42;2.50;;;;;;;18.48;100.00;99291.73;2876728;82;21143;-62
2021/08/08 01:14:52;;;;;;;3.62;2.47;;;;;;;18.54;100.00;99301.68;2877187;82;20964;-64
2021/08/08 01:18:55;;;;;;;5.20;2.08;;;;;;;18.63;100.00;99308.53;2830535;84;21111;-62
2021/08/08 01:23:01;;;;;;;2.60;2.40;;;;;;;18.68;100.00;99329.47;2830176;84;21020;-64
2021/08/08 01:27:04;;;;;;;1.98;1.77;;;;;;;18.65;100.00;99381.06;2830217;83;21032;-64
2021/08/08 01:31:08;;;;;;;2.92;1.90;;;;;;;18.55;100.00;99370.66;2830392;83;21102;-65
2021/08/08 01:35:17;;;;;;;6.50;2.22;;;;;;;18.50;100.00;99383.90;2830509;84;21059;-64
2021/08/08 01:39:21;;;;;;;3.30;2.30;;;;;;;18.45;100.00;99373.72;2830007;83;22272;-66
2021/08/08 01:43:29;;;;;;;3.77;2.15;;;;;;;18.44;100.00;99374.76;2830517;83;21060;-63
2021/08/08 01:47:36;;;;;;;3.65;2.22;;;;;;;18.48;100.00;99357.16;2830994;83;20985;-63
2021/08/08 01:51:39;;;;;;;4.28;2.12;;;;;;;18.57;100.00;99363.20;2830406;83;21052;-64
2021/08/08 01:55:42;;;;;;;8.58;3.33;;;;;;;18.63;100.00;99362.39;2830362;83;21044;-64
2021/08/08 01:59:46;;;;;;;2.27;2.05;;;;;;;18.65;100.00;99351.43;2822193;84;21032;-64
2021/08/08 02:03:48;;;;;;;5.13;2.30;;;;;;;18.67;100.00;99344.82;2791568;83;21003;-66
2021/08/08 02:07:52;;;;;;;6.40;2.15;;;;;;;18.75;100.00;99342.97;2829026;82;21064;-68
2021/08/08 02:11:53;;;;;;;3.60;2.17;;;;;;;18.86;100.00;99359.06;2879766;82;21045;-64
2021/08/08 02:15:56;;;;;;;4.08;1.92;;;;;;;18.88;100.00;99338.97;2879598;82;21029;-67
2021/08/08 02:19:58;;;;;;;6.10;2.45;;;;;;;18.95;100.00;99357.32;2880158;82;21057;-64
2021/08/08 02:24:04;;;;;;;10.40;2.13;;;;;;;18.94;99.76;99365.09;2880075;82;21558;-66
2021/08/08 02:28:07;;;;;;;5.70;2.27;;;;;;;18.90;99.53;99369.23;2880051;82;21358;-66
2021/08/08 02:32:09;;;;;;;3.87;1.98;;;;;;;18.86;99.55;99386.81;2880145;82;21056;-65
2021/08/08 02:36:11;;;;;;;2.05;1.67;;;;;;;18.81;100.00;99390.14;2879866;82;21523;-63
2021/08/08 02:40:19;;;;;;;1.52;1.42;;;;;;;18.85;100.00;99395.93;2880268;82;21061;-67
2021/08/08 02:44:21;;;;;;;6.30;2.05;;;;;;;18.90;100.00;99421.78;2880695;82;21045;-65
2021/08/08 02:48:25;;;;;;;2.30;1.75;;;;;;;18.97;100.00;99418.58;2880532;82;21516;-64
2021/08/08 02:52:28;;;;;;;5.17;2.67;;;;;;;18.89;99.40;99433.59;2880513;82;21030;-65
2021/08/08 02:56:30;;;;;;;3.47;2.05;;;;;;;18.72;99.64;99431.73;2880318;82;21017;-63
2021/08/08 03:00:32;;;;;;;4.15;1.87;;;;;;;18.61;99.99;99423.70;2880585;82;21018;-65
2021/08/08 03:04:35;;;;;;;2.83;2.10;;;;;;;18.58;100.00;99422.77;2880417;82;21029;-64
2021/08/08 03:08:39;;;;;;;3.15;1.82;;;;;;;18.67;100.00;99437.75;2875850;82;21029;-65
2021/08/08 03:12:43;;;;;;;4.62;1.80;;;;;;;18.68;100.00;99439.41;2872755;82;22215;-64
2021/08/08 03:16:47;;;;;;;3.75;2.02;;;;;;;18.62;100.00;99444.22;2873594;82;21002;-66
2021/08/08 03:20:49;;;;;;;2.92;1.92;;;;;;;18.65;100.00;99440.31;2915758;81;20988;-66
2021/08/08 03:24:51;;;;;;;1.92;1.50;;;;;;;18.68;100.00;99442.09;2860182;82;20996;-65
2021/08/08 03:28:52;;;;;;;2.30;1.77;;;;;;;18.72;100.00;99449.78;2915879;81;21058;-64
2021/08/08 03:32:58;;;;;;;1.98;1.77;;;;;;;18.86;100.00;99451.48;2859821;83;20988;-63
2021/08/08 03:37:02;;;;;;;;;;;;;;;19.01;100.00;99453.23;2862310;83;21015;-64
2021/08/08 03:41:07;;;;;;;7.43;2.03;;;;;;;19.18;100.00;99450.49;2859654;83;20108;-65
2021/08/08 03:45:10;;;;;;;4.10;2.00;;;;;;;19.22;100.00;99445.00;2859456;83;21031;-63
2021/08/08 03:49:12;;;;;;;5.47;2.87;;;;;;;19.23;100.00;99448.02;2915634;81;21023;-65
2021/08/08 03:53:15;;;;;;;3.58;1.82;;;;;;;19.21;98.59;99446.57;2859660;82;21027;-64
2021/08/08 03:57:18;;;;;;;3.25;1.95;;;;;;;19.13;98.07;99456.48;2859634;83;21039;-63
2021/08/08 04:01:24;;;;;;;2.90;1.90;;;;;;;19.09;98.58;99467.89;2915822;81;21054;-65
2021/08/08 04:05:28;;;;;;;2.67;1.90;;;;;;;19.14;99.50;99447.89;2915688;81;21687;-65
2021/08/08 04:09:29;;;;;;;2.25;1.60;;;;;;;19.20;98.09;99444.91;2878974;82;21043;-63
2021/08/08 04:13:31;;;;;;;2.70;1.40;;;;;;;19.19;97.76;99451.34;2877918;82;21560;-64
2021/08/08 04:17:33;;;;;;;5.80;1.25;;;;;;;19.21;97.72;99456.01;2831094;83;21067;-65
2021/08/08 04:21:36;;;;;;;3.72;1.80;;;;;;;19.24;97.95;99469.89;2831493;83;21036;-63
2021/08/08 04:25:40;;;;;;;3.90;1.30;;;;;;;19.24;98.03;99499.55;2831310;83;21082;-65
2021/08/08 04:29:44;;;;;;;2.40;1.60;;;;;;;19.29;97.53;99523.74;2831031;84;21083;-64
2021/08/08 04:33:46;;;;;;;8.08;2.27;;;;;;;19.28;97.47;99522.89;2831420;84;21016;-63
2021/08/08 04:37:49;;;;;;;3.62;2.05;;;;;;;19.30;97.33;99526.22;2831691;83;21501;-63
2021/08/08 04:41:52;;;;;;;2.92;2.27;;;;;;;19.34;97.69;99523.96;2831734;84;21025;-64
2021/08/08 04:45:59;;;;;;;6.03;1.77;;;;;;;19.34;96.98;99549.05;2797930;83;21801;-64
2021/08/08 04:50:07;;;;;;;2.83;1.82;;;;;;;19.31;96.90;99562.94;2785022;84;20995;-65
2021/08/08 04:54:09;;;;;;;2.98;2.00;;;;;;;19.33;97.98;99566.79;2768865;86;21074;-65
2021/08/08 04:58:13;;;;;;;2.12;1.65;;;;;;;19.38;97.61;99574.59;2768983;86;21010;-64
2021/08/08 05:02:21;;;;;;;4.17;1.77;;;;;;;19.42;97.63;99573.66;2768464;86;21675;-63
2021/08/08 05:06:26;;;;;;;3.27;1.65;;;;;;;19.50;98.35;99584.28;2768734;86;20971;-64
2021/08/08 05:10:30;;;;;;;4.90;1.55;;;;;;;19.54;97.90;99599.53;2778407;85;21117;-63
2021/08/08 05:14:32;;;;;;;5.08;1.92;;;;;;;19.57;97.79;99601.00;2800326;85;21053;-63
2021/08/08 05:18:36;;;;;;;4.37;1.75;;;;;;;19.63;98.05;99592.09;2800584;85;21054;-62
2021/08/08 05:22:38;;;;;;;3.22;2.05;;;;;;;19.69;97.46;99590.77;2800326;85;21096;-63
2021/08/08 05:26:41;;;;;;;3.08;2.22;;;;;;;19.73;97.03;99598.45;2800718;84;20998;-62
2021/08/08 05:30:45;;;;;;;3.80;2.05;;;;;;;19.70;96.45;99609.16;2820214;82;21026;-62
2021/08/08 05:34:50;;;;;;;2.15;1.85;;;;;;;19.73;96.79;99613.29;2781317;85;21540;-62
2021/08/08 05:38:54;;;;;;;3.35;1.67;;;;;;;19.72;96.98;99613.83;2800992;85;21006;-63
2021/08/08 05:42:55;;;;;;;2.70;2.45;;;;;;;19.72;96.26;99612.47;2801085;85;21043;-63
2021/08/08 05:46:59;;;;;;;5.90;1.60;;;;;;;19.72;96.83;99612.47;2801103;84;21046;-61
2021/08/08 05:51:00;;;;;;;2.30;1.92;;;;;;;19.79;97.00;99605.22;2801260;84;21006;-62
2021/08/08 05:55:03;;;;;;;4.30;2.17;;;;;;;19.82;95.87;99606.16;2801031;84;21053;-63
2021/08/08 05:59:12;;;;;;;4.17;1.82;;;;;;;19.87;96.54;99610.14;2801486;84;21014;-63
2021/08/08 06:03:14;;;;;;;6.87;2.90;;;;;;;19.93;96.87;99610.16;2801959;82;21014;-62
2021/08/08 06:07:19;;;;;;;5.12;2.37;;;;;;;20.02;96.56;99632.40;2831019;82;20983;-62
2021/08/08 06:11:21;;;;;;;4.95;2.42;;;;;;;20.05;95.26;99623.07;2835682;83;21037;-62
2021/08/08 06:15:23;;;;;;;2.65;1.87;;;;;;;20.05;95.20;99623.92;2840216;83;21009;-61
2021/08/08 06:19:27;;;;;;;3.12;2.42;;;;;;;20.06;95.44;99623.38;2874674;82;21064;-62
2021/08/08 06:23:29;;;;;;;8.60;1.95;;;;;;;20.08;95.02;99630.76;2868854;83;21037;-62
2021/08/08 06:27:32;;;;;;;5.47;2.15;;;;;;;20.06;94.60;99639.08;2839394;83;21005;-61
2021/08/08 06:31:34;;;;;;;5.60;2.52;;;;;;;20.08;94.83;99615.91;2836455;83;21026;-61
2021/08/08 06:35:36;;;;;;;4.72;2.77;;;;;;;20.17;95.34;99607.09;2838401;83;21038;-61
2021/08/08 06:39:41;;;;;;;4.78;2.50;;;;;;;20.28;95.38;99615.11;2841668;83;21026;-61
2021/08/08 06:43:43;;;;;;;7.12;1.87;;;;;;;20.44;96.68;99650.32;2845850;83;21049;-61
2021/08/08 06:47:47;;;;;;;5.47;2.33;;;;;;;20.55;95.26;99660.53;2870498;83;21017;-61
2021/08/08 06:51:49;;;;;;;2.33;2.12;;;;;;;20.51;94.50;99666.03;2844189;83;21005;-61
2021/08/08 06:55:51;;;;;;;6.83;2.40;;;;;;;20.48;94.40;99661.87;2861458;82;21060;-60
2021/08/08 06:59:56;;;;;;;4.12;2.62;;;;;;;20.47;93.92;99658.04;2843531;83;21088;-61
2021/08/08 07:03:58;;;;;;;1.95;1.70;;;;;;;20.52;95.02;99667.70;2833435;83;21355;-61
2021/08/08 07:08:01;;;;;;;2.37;2.17;;;;;;;20.67;95.43;99653.98;2875635;82;20997;-61
2021/08/08 07:12:04;;;;;;;2.17;1.70;;;;;;;20.85;95.61;99663.36;2865809;82;21108;-61
2021/08/08 07:16:10;;;;;;;2.58;2.35;;;;;;;20.94;93.62;99662.94;2856498;82;21064;-60
2021/08/08 07:20:13;;;;;;;5.58;1.50;;;;;;;20.98;92.44;99657.95;2881249;82;21053;-60
2021/08/08 07:24:15;;;;;;;6.83;2.25;;;;;;;20.96;91.20;99645.98;2870536;82;20989;-60
2021/08/08 07:28:18;;;;;;;7.47;3.90;;;;;;;20.99;90.81;99637.98;2854819;82;21044;-60
2021/08/08 07:32:20;;;;;;;2.35;2.15;;;;;;;21.21;92.04;99652.07;2854234;82;21005;-60
2021/08/08 07:36:27;;;;;;;2.27;2.00;;;;;;;21.63;93.48;99669.34;2839827;82;21013;-59
2021/08/08 07:40:31;;;;;;;2.45;1.57;;;;;;;21.86;88.94;99684.80;2881211;82;21393;-60
2021/08/08 07:44:37;;;;;;;11.15;1.87;;;;;;;22.03;88.67;99677.84;2832764;82;21005;-61
2021/08/08 07:48:47;;;;;;;2.30;2.10;;;;;;;22.41;87.72;99684.27;2837969;82;21073;-60
2021/08/08 07:52:50;;;;;;;3.45;1.67;;;;;;;22.91;85.82;99688.92;2863432;82;21021;-60
2021/08/08 07:56:58;;;;;;;1.35;0.88;;;;;;;23.39;84.77;99684.73;2872868;82;21064;-62
2021/08/08 08:01:01;;;;;;;3.05;0.98;;;;;;;23.78;81.71;99684.51;2849537;82;20990;-62
2021/08/08 08:05:06;;;;;;;1.10;1.00;;;;;;;24.09;79.34;99692.71;2860393;82;21001;-61
2021/08/08 08:09:11;;;;;;;3.22;0.95;;;;;;;24.38;78.30;99713.30;2841714;82;20974;-61
2021/08/08 08:13:18;;;;;;;3.75;1.10;;;;;;;24.64;74.95;99713.95;2873364;82;21582;-61
2021/08/08 08:17:22;;;;;;;2.77;1.20;;;;;;;24.84;73.81;99710.95;2874752;82;21012;-61
2021/08/08 08:21:26;;;;;;;1.30;0.50;;;;;;;24.87;70.65;99708.31;2794616;83;21051;-62
2021/08/08 08:25:28;;;;;;;2.10;1.40;;;;;;;24.90;70.51;99703.20;2801529;83;21104;-61
2021/08/08 08:29:30;;;;;;;2.30;0.65;;;;;;;24.92;70.07;99696.99;2828194;84;21016;-62
2021/08/08 08:33:33;;;;;;;1.15;0.65;;;;;;;25.05;69.51;99699.20;2797359;82;21004;-65
2021/08/08 08:37:39;;;;;;;3.08;0.60;;;;;;;25.16;66.94;99706.55;2783081;82;21066;-64
2021/08/08 08:41:42;;;;;;;0.93;0.70;;;;;;;25.12;66.16;99696.37;2805319;82;21059;-61
2021/08/08 08:45:48;;;;;;;2.33;0.70;;;;;;;25.04;66.27;99700.27;2797060;84;21036;-63
2021/08/08 08:50:04;;;;;;;0.40;0.30;;;;;;;25.01;65.31;99702.91;2803602;82;20999;-62
2021/08/08 08:54:06;;;;;;;0.98;0.70;;;;;;;24.86;65.33;99711.55;2788784;82;20960;-62
2021/08/08 08:58:08;;;;;;;1.17;0.60;;;;;;;24.58;66.28;99708.94;2783167;82;21022;-62
2021/08/08 09:02:12;;;;;;;3.75;0.88;;;;;;;24.49;66.93;99713.03;2802138;82;21038;-63
2021/08/08 09:06:16;;;;;;;1.32;0.88;;;;;;;24.73;64.93;99711.72;2818657;84;21050;-61
2021/08/08 09:10:23;;;;;;;2.47;0.70;;;;;;;24.99;65.08;99713.75;2794300;83;21537;-61
2021/08/08 09:14:28;;;;;;;1.32;0.50;;;;;;;25.21;63.27;99713.46;2778572;85;21042;-64
2021/08/08 09:18:32;;;;;;;0.60;0.50;;;;;;;25.30;62.83;99718.53;2843557;82;21013;-61
2021/08/08 09:22:36;;;;;;;0.95;0.78;;;;;;;25.27;61.37;99729.38;2852511;82;21033;-62
2021/08/08 09:26:38;;;;;;;0.90;0.45;;;;;;;25.29;61.28;99738.12;2877417;82;21013;-61
2021/08/08 09:30:42;;;;;;;0.75;0.42;;;;;;;25.19;59.94;99738.72;2859130;82;21002;-61
2021/08/08 09:34:54;;;;;;;1.17;0.62;;;;;;;25.21;59.90;99727.58;2873516;81;21479;-62
2021/08/08 09:38:52;;;;;;;0.82;0.33;;;;;;;25.12;59.36;99742.63;2860834;81;21054;-60
2021/08/08 09:42:54;;;;;;;2.08;0.75;;;;;;;25.09;60.96;99734.38;2874902;81;21100;-63
2021/08/08 09:47:05;;;;;;;1.80;1.02;;;;;;;25.40;60.67;99739.19;2881962;81;21045;-60
2021/08/08 09:51:11;;;;;;;1.72;0.40;;;;;;;25.45;60.82;99735.73;2867043;82;21011;-63
2021/08/08 09:55:33;;;;;;;2.40;0.30;;;;;;;25.48;59.09;99740.21;2878546;81;20977;-63
2021/08/08 09:59:46;;;;;;;0.60;0.20;;;;;;;25.47;59.41;99748.59;2813267;84;21079;-60
2021/08/08 10:03:48;;;;;;;1.05;0.35;;;;;;;25.47;58.88;99745.36;2796122;83;21047;-61
2021/08/08 10:07:51;;;;;;;0.93;0.60;;;;;;;25.41;59.84;99746.29;2821133;83;21031;-62
2021/08/08 10:11:53;;;;;;;0.50;0.40;;;;;;;25.40;59.34;99752.80;2802816;82;21054;-61
2021/08/08 10:15:57;;;;;;;0.72;0.40;;;;;;;25.41;59.43;99757.18;2811590;84;21058;-63
2021/08/08 10:20:05;;;;;;;1.50;0.40;;;;;;;25.71;59.49;99754.85;2810979;84;21070;-64
2021/08/08 10:24:09;;;;;;;0.55;0.37;;;;;;;26.18;59.19;99755.30;2822392;82;20991;-61
2021/08/08 10:28:31;;;;;;;2.60;0.90;;;;;;;26.50;58.61;99760.79;2828637;82;21008;-61
2021/08/08 10:32:34;;;;;;;1.12;0.60;;;;;;;26.51;57.48;99763.80;2810119;82;21054;-61
2021/08/08 10:36:39;;;;;;;3.12;1.30;;;;;;;26.41;57.85;99767.17;2799773;82;21031;-64
2021/08/08 10:40:41;;;;;;;;;;;;;;;26.53;56.98;99767.14;2805613;82;21799;-60
2021/08/08 10:44:49;;;;;;;0.40;0.37;;;;;;;26.62;55.93;99767.02;2817009;82;20109;-61
2021/08/08 10:48:52;;;;;;;0.40;0.30;;;;;;;26.55;56.03;99772.34;2807526;82;21034;-64
2021/08/08 10:52:54;;;;;;;1.07;0.20;;;;;;;26.38;56.00;99767.14;2805038;82;21027;-62
2021/08/08 10:56:57;;;;;;;1.27;0.40;;;;;;;26.37;55.43;99768.73;2783223;85;21014;-62
2021/08/08 11:00:59;;;;;;;0.82;0.35;;;;;;;26.47;55.50;99766.73;2783308;85;21003;-62
2021/08/08 11:05:11;;;;;;;0.85;0.33;;;;;;;26.65;53.21;99756.98;2806285;82;21011;-61
2021/08/08 11:09:13;;;;;;;1.10;0.33;;;;;;;26.77;53.41;99775.20;2805311;82;21003;-62
2021/08/08 11:13:28;;;;;;;1.10;0.37;;;;;;;26.76;53.80;99768.90;2804241;84;21015;-63
2021/08/08 11:18:02;;;;;;;0.90;0.45;;;;;;;27.00;54.50;99780.24;2822555;82;21034;-63
2021/08/08 11:22:18;;;;;;;0.53;0.30;;;;;;;27.22;52.89;99775.69;2814607;82;20981;-63
2021/08/08 11:26:46;;;;;;;1.55;0.60;;;;;;;27.31;53.25;99776.61;2758359;85;21371;-63
2021/08/08 11:30:48;;;;;;;1.10;0.47;;;;;;;27.35;52.76;99779.97;2834143;83;20945;-63
2021/08/08 11:35:01;;;;;;;1.00;0.30;;;;;;;27.37;52.50;99780.55;2757724;85;21000;-65
2021/08/08 11:40:04;;;;;;;0.85;0.40;;;;;;;27.21;52.36;99776.77;2720238;85;21019;-62
2021/08/08 11:44:12;;;;;;;1.27;0.40;;;;;;;27.29;53.02;99776.05;2804909;83;21087;-61
2021/08/08 11:48:42;;;;;;;1.10;0.30;;;;;;;27.05;52.00;99776.22;2789736;85;21430;-62
2021/08/08 11:52:45;;;;;;;0.60;0.30;;;;;;;26.56;51.96;99782.17;2785417;85;21047;-62
2021/08/08 11:57:28;;;;;;;5.75;0.33;;;;;;;26.31;53.58;99784.16;2768799;85;20991;-62
2021/08/08 12:01:31;;;;;;;0.82;0.30;;;;;;;26.60;54.69;99788.78;2785992;85;21008;-63
2021/08/08 12:05:39;;;;;;;0.50;0.30;;;;;;;27.00;53.87;99788.42;2798688;85;21075;-64
2021/08/08 12:10:05;;;;;;;1.05;0.30;;;;;;;27.29;54.18;99776.05;2741617;86;21099;-63
2021/08/08 12:14:12;;;;;;;2.35;0.60;;;;;;;27.51;52.68;99778.34;2798928;83;21063;-62
2021/08/08 12:18:15;;;;;;;1.15;0.40;;;;;;;27.74;51.51;99775.09;2776314;85;20984;-64
2021/08/08 12:22:22;;;;;;;1.92;0.35;;;;;;;27.86;50.52;99776.34;2805213;82;21050;-64
2021/08/08 12:26:29;;;;;;;2.67;0.25;;;;;;;27.55;51.54;99781.38;2795885;82;21047;-64
2021/08/08 12:30:32;;;;;;;0.60;0.28;;;;;;;27.54;51.84;99776.99;2803127;82;21034;-64
2021/08/08 12:34:33;;;;;;;0.75;0.55;;;;;;;27.60;51.93;99771.88;2848861;82;21104;-63
2021/08/08 12:38:50;;;;;;;0.53;0.13;;;;;;;27.61;50.16;99773.56;2852442;82;21061;-65
2021/08/08 12:43:01;;;;;;;1.02;0.30;;;;;;;27.72;49.65;99781.88;2846042;82;21031;-62
2021/08/08 12:47:05;;;;;;;0.70;0.30;;;;;;;27.86;49.81;99785.06;2776370;85;21072;-63
2021/08/08 12:51:08;;;;;;;2.73;0.47;;;;;;;27.89;50.26;99774.98;2850257;82;21507;-61
2021/08/08 12:55:12;;;;;;;0.60;0.30;;;;;;;27.97;49.20;99790.13;2884861;82;21037;-64
2021/08/08 12:59:16;;;;;;;1.65;0.35;;;;;;;28.04;48.33;99788.05;2885253;82;21017;-64
2021/08/08 13:03:18;;;;;;;0.47;0.10;;;;;;;28.13;49.56;99790.60;2883175;82;20939;-61
2021/08/08 13:07:21;;;;;;;1.62;0.20;;;;;;;28.16;50.62;99800.24;2857188;82;21057;-62
2021/08/08 13:11:23;;;;;;;0.30;0.20;;;;;;;28.23;49.00;99783.09;2842422;82;21089;-61
2021/08/08 13:15:25;;;;;;;1.47;0.68;;;;;;;28.32;48.03;99802.08;2867474;82;20958;-62
2021/08/08 13:19:35;;;;;;;1.37;0.35;;;;;;;28.39;49.17;99801.05;2836224;82;20982;-62
2021/08/08 13:23:37;;;;;;;2.30;0.30;;;;;;;28.39;46.30;99802.41;2832454;84;21021;-61
2021/08/08 13:27:48;;;;;;;0.20;0.10;;;;;;;28.11;47.30;99816.00;2847059;82;21049;-61
2021/08/08 13:31:55;;;;;;;0.50;0.10;;;;;;;28.11;47.19;99813.27;2861244;82;21065;-60
2021/08/08 13:35:56;;;;;;;1.10;0.23;;;;;;;28.10;47.74;99825.28;2832990;84;20985;-61
2021/08/08 13:40:09;;;;;;;1.67;0.30;;;;;;;28.04;49.10;99833.95;2832842;83;21052;-62
2021/08/08 13:44:11;;;;;;;0.50;0.30;;;;;;;27.97;49.29;99842.89;2844873;83;21014;-62
2021/08/08 13:48:15;;;;;;;0.30;0.20;;;;;;;28.01;49.27;99839.93;2801994;84;21067;-62
2021/08/08 13:52:19;;;;;;;0.75;0.30;;;;;;;28.19;48.26;99840.18;2851190;83;21007;-61
2021/08/08 13:56:21;;;;;;;0.78;0.40;;;;;;;28.50;49.79;99856.97;2798659;84;21063;-61
2021/08/08 14:00:23;;;;;;;2.87;0.25;;;;;;;28.69;48.92;99868.09;2788309;85;21008;-60
2021/08/08 14:04:24;;;;;;;1.17;0.53;;;;;;;27.84;50.39;99880.13;2760033;86;20988;-60
2021/08/08 14:08:27;;;;;;;1.47;0.75;;;;;;;27.09;51.83;99864.71;2854245;82;20990;-62
2021/08/08 14:12:31;;;;;;;1.32;0.68;;;;;;;26.63;53.53;99878.33;2882065;82;21088;-63
2021/08/08 14:16:51;;;;;;;0.85;0.50;;;;;;;26.31;54.29;99878.21;2884809;82;21033;-61
2021/08/08 14:20:53;;;;;;;1.47;0.82;;;;;;;26.16;55.71;99886.05;2885259;82;21014;-61
2021/08/08 14:24:59;;;;;;;0.72;0.50;;;;;;;26.06;56.11;99896.20;2884061;82;20990;-62
2021/08/08 14:29:02;;;;;;;0.65;0.45;;;;;;;26.11;55.91;99886.77;2884999;82;21017;-61
2021/08/08 14:33:14;;;;;;;0.42;0.33;;;;;;;26.23;55.28;99883.50;2884754;82;21029;-61
2021/08/08 14:37:25;;;;;;;1.05;0.42;;;;;;;26.29;55.55;99875.45;2882946;82;20998;-62
2021/08/08 14:41:39;;;;;;;0.72;0.40;;;;;;;26.69;55.23;99866.95;2884956;82;21017;-62
2021/08/08 14:45:52;;;;;;;2.15;0.68;;;;;;;27.06;52.68;99866.58;2907966;80;21067;-62
2021/08/08 14:50:09;;;;;;;0.40;0.20;;;;;;;27.27;52.70;99862.83;2913323;81;21039;-62
2021/08/08 14:54:19;;;;;;;1.45;0.30;;;;;;;27.15;51.67;99863.75;2914252;81;20988;-61
2021/08/08 14:58:29;;;;;;;3.35;0.45;;;;;;;26.98;53.13;99863.70;2914679;81;21035;-61
2021/08/08 15:02:35;;;;;;;1.57;0.20;;;;;;;27.02;52.84;99868.15;2865999;81;21021;-63
2021/08/08 15:06:50;;;;;;;0.30;0.30;;;;;;;27.06;52.31;99867.94;2877343;82;21077;-61
2021/08/08 15:10:57;;;;;;;0.90;0.70;;;;;;;27.07;51.95;99868.23;2884825;82;21065;-62
2021/08/08 15:15:00;;;;;;;;;;;;;;;27.25;53.03;99874.54;2865855;82;21005;-64
2021/08/08 15:19:04;;;;;;;0.95;0.60;;;;;;;27.48;52.69;99879.02;2836187;84;20730;-62
2021/08/08 15:23:06;;;;;;;0.95;0.70;;;;;;;27.48;52.00;99879.84;2841850;81;21021;-62
2021/08/08 15:27:08;;;;;;;2.75;0.57;;;;;;;27.36;52.02;99876.38;2854123;81;21626;-61
2021/08/08 15:31:11;;;;;;;0.95;0.40;;;;;;;27.21;51.86;99880.50;2865782;81;21001;-61
2021/08/08 15:35:18;;;;;;;3.08;0.40;;;;;;;27.32;52.01;99883.41;2835168;81;21073;-62
2021/08/08 15:39:21;;;;;;;1.90;0.40;;;;;;;27.37;52.04;99880.21;2870015;82;20993;-62
2021/08/08 15:43:27;;;;;;;1.42;0.68;;;;;;;27.36;52.75;99880.47;2861786;82;20982;-61
2021/08/08 15:47:34;;;;;;;0.95;0.65;;;;;;;27.21;51.13;99891.42;2872308;82;21051;-61
2021/08/08 15:51:35;;;;;;;3.35;0.53;;;;;;;27.09;51.95;99889.28;2853686;82;21056;-61
2021/08/08 15:55:37;;;;;;;1.30;0.70;;;;;;;27.14;52.34;99888.55;2873750;81;20980;-60
2021/08/08 15:59:40;;;;;;;1.92;0.72;;;;;;;27.34;52.47;99888.09;2829992;82;21030;-61
2021/08/08 16:03:45;;;;;;;1.95;0.50;;;;;;;27.56;51.10;99883.28;2830223;84;21034;-60
2021/08/08 16:07:50;;;;;;;3.45;0.50;;;;;;;27.71;51.55;99897.19;2828014;83;21007;-61
2021/08/08 16:11:53;;;;;;;;;;;;;;;27.90;51.38;99898.25;2810516;83;21034;-60
2021/08/08 16:15:59;;;;;;;2.47;0.47;;;;;;;28.03;51.00;99895.17;2826392;84;20124;-60
2021/08/08 16:20:33;;;;;;;1.55;0.40;;;;;;;28.01;50.65;99909.63;2799958;83;21014;-61
2021/08/08 16:24:37;;;;;;;1.20;0.55;;;;;;;27.90;51.29;99913.28;2783605;85;21027;-61
2021/08/08 16:29:13;;;;;;;0.60;0.20;;;;;;;27.73;50.99;99911.94;2796328;83;21086;-60
2021/08/08 16:33:16;;;;;;;0.88;0.30;;;;;;;27.57;51.51;99923.98;2830567;84;21010;-62
2021/08/08 16:37:56;;;;;;;0.30;0.30;;;;;;;27.52;52.24;99925.27;2811051;84;20999;-61
2021/08/08 16:42:02;;;;;;;2.15;0.50;;;;;;;27.43;51.96;99928.11;2784013;84;30937;-61
2021/08/08 16:46:04;;;;;;;0.45;0.40;;;;;;;27.26;52.29;99934.37;2805255;85;20996;-61
2021/08/08 16:50:44;;;;;;;0.90;0.57;;;;;;;27.17;52.88;99930.36;2851238;82;21020;-62
2021/08/08 16:54:48;;;;;;;2.05;0.50;;;;;;;27.04;53.10;99933.70;2801571;85;20984;-65
2021/08/08 16:59:22;;;;;;;0.60;0.60;;;;;;;26.95;53.75;99935.16;2801759;85;21063;-63
2021/08/08 17:03:28;;;;;;;;;;;;;;;26.83;54.05;99927.53;2803897;85;21107;-62
2021/08/08 17:08:06;;;;;;;1.60;0.80;;;;;;;26.70;54.00;99936.80;2801543;85;20116;-60
2021/08/08 17:12:12;;;;;;;0.70;0.50;;;;;;;26.62;53.88;99930.67;2801161;83;21162;-64
2021/08/08 17:16:17;;;;;;;1.70;0.75;;;;;;;26.50;53.90;99933.95;2857004;83;21051;-62
2021/08/08 17:20:22;;;;;;;0.78;0.55;;;;;;;26.32;54.54;99938.48;2857024;83;21524;-64
2021/08/08 17:24:31;;;;;;;1.37;0.50;;;;;;;26.19;55.07;99944.20;2817134;84;21023;-62
2021/08/08 17:28:36;;;;;;;0.72;0.57;;;;;;;26.02;55.44;99952.22;2873889;82;20987;-63
2021/08/08 17:32:40;;;;;;;2.75;0.50;;;;;;;25.88;55.84;99943.45;2755386;83;21043;-63
2021/08/08 17:36:49;;;;;;;0.55;0.40;;;;;;;25.79;56.44;99950.63;2803837;82;21015;-64
2021/08/08 17:40:56;;;;;;;2.60;0.90;;;;;;;25.69;57.80;99961.80;2781437;85;21003;-64
2021/08/08 17:45:03;;;;;;;1.45;0.68;;;;;;;25.55;58.91;99976.13;2797510;84;21027;-63
2021/08/08 17:49:10;;;;;;;1.47;0.57;;;;;;;25.27;58.08;99982.48;2856695;82;21018;-62
2021/08/08 17:53:13;;;;;;;2.20;0.68;;;;;;;24.89;58.75;99989.88;2802838;85;21067;-62
2021/08/08 17:57:20;;;;;;;3.65;0.72;;;;;;;24.66;59.43;99995.96;2802769;84;21066;-62
2021/08/08 18:01:24;;;;;;;0.68;0.37;;;;;;;24.55;59.88;99994.02;2856269;82;21042;-61
2021/08/08 18:05:29;;;;;;;2.17;0.60;;;;;;;24.37;60.73;100001.09;2855836;83;21015;-62
2021/08/08 18:09:34;;;;;;;3.17;0.70;;;;;;;24.20;60.94;100002.20;2802478;85;21049;-64
2021/08/08 18:13:37;;;;;;;;;;;;;;;24.03;60.99;99998.69;2802972;84;21055;-60
2021/08/08 18:17:40;;;;;;;4.22;0.90;;;;;;;23.88;61.97;100002.22;2839124;84;20100;-61
2021/08/08 18:21:42;;;;;;;1.50;1.02;;;;;;;23.72;61.48;100001.70;2797505;85;21000;-63
2021/08/08 18:25:43;;;;;;;3.90;0.57;;;;;;;23.53;61.75;100012.48;2838750;84;21564;-62
2021/08/08 18:29:53;;;;;;;1.00;0.68;;;;;;;23.34;62.34;100008.84;2780532;85;21051;-60
2021/08/08 18:33:55;;;;;;;6.40;1.15;;;;;;;23.16;62.84;100004.09;2740053;86;21085;-62
2021/08/08 18:37:57;;;;;;;5.20;1.22;;;;;;;22.97;63.03;100005.31;2767641;86;21029;-60
2021/08/08 18:41:58;;;;;;;4.83;1.10;;;;;;;22.81;63.24;100000.40;2768102;84;21025;-62
2021/08/08 18:46:00;;;;;;;4.58;0.85;;;;;;;22.70;63.48;100009.18;2762987;85;20977;-60
2021/08/08 18:50:04;;;;;;;1.67;0.80;;;;;;;22.60;64.53;100020.47;2766262;84;21068;-61
2021/08/08 18:54:05;;;;;;;1.42;1.10;;;;;;;22.53;65.30;100017.25;2807998;83;21013;-62
2021/08/08 18:58:09;;;;;;;1.87;0.78;;;;;;;22.45;65.65;100022.03;2788203;84;21056;-62
2021/08/08 19:02:17;;;;;;;0.80;0.60;;;;;;;22.38;65.62;100047.78;2807719;84;21052;-60
2021/08/08 19:06:20;;;;;;;5.35;1.72;;;;;;;22.30;65.36;100052.89;2802453;83;21080;-61
2021/08/08 19:10:27;;;;;;;5.00;1.07;;;;;;;22.25;65.08;100065.69;2808478;84;21096;-62
2021/08/08 19:14:28;;;;;;;3.37;0.90;;;;;;;22.14;64.77;100073.11;2836279;82;21064;-64
2021/08/08 19:18:34;;;;;;;2.33;0.60;;;;;;;22.05;64.90;100072.98;2855011;82;21036;-62